createdAt,value
2019-05-17T00:01:22.548Z,92.10
2019-05-17T00:03:53.589Z,92.10
2019-05-17T00:06:24.494Z,91.90
2019-05-17T00:08:56.437Z,91.80
2019-05-17T00:11:27.461Z,91.80
2019-05-17T00:13:58.383Z,91.70
2019-05-17T00:16:29.279Z,91.60
2019-05-17T00:19:00.311Z,91.50
2019-05-17T00:21:31.136Z,91.30
2019-05-17T00:24:01.830Z,91.10
2019-05-17T00:26:39.694Z,91.30
2019-05-17T00:29:06.956Z,90.90
2019-05-17T00:31:37.745Z,91.20
2019-05-17T00:34:08.624Z,91.10
2019-05-17T00:36:39.492Z,91.20
2019-05-17T00:39:10.479Z,91.20
2019-05-17T00:41:41.266Z,91.10
2019-05-17T00:44:12.131Z,91.00
2019-05-17T00:46:43.044Z,90.90
2019-05-17T00:49:14.352Z,90.50
2019-05-17T00:51:47.262Z,90.90
2019-05-17T00:54:17.598Z,91.00
2019-05-17T00:56:48.738Z,90.70
2019-05-17T00:59:19.584Z,90.50
2019-05-17T01:01:50.636Z,90.50
2019-05-17T01:04:21.370Z,90.00
2019-05-17T01:06:52.426Z,89.90
2019-05-17T01:09:23.178Z,90.30
2019-05-17T01:11:53.893Z,90.40
2019-05-17T01:14:26.468Z,90.30
2019-05-17T01:16:56.685Z,90.40
2019-05-17T01:19:27.768Z,90.10
2019-05-17T01:21:58.788Z,89.60
2019-05-17T01:24:29.783Z,89.10
2019-05-17T01:27:00.770Z,89.60
2019-05-17T01:29:31.808Z,89.70
2019-05-17T01:32:02.597Z,89.70
2019-05-17T01:34:33.466Z,87.90
2019-05-17T01:37:06.325Z,86.10
2019-05-17T01:39:37.557Z,85.90
2019-05-17T01:42:08.399Z,86.80
2019-05-17T01:44:39.259Z,85.80
2019-05-17T01:47:14.064Z,84.80
2019-05-17T01:49:46.996Z,84.20
2019-05-17T01:52:17.461Z,84.60
2019-05-17T01:54:48.138Z,82.80
2019-05-17T01:57:19.054Z,83.50
2019-05-17T01:59:50.080Z,83.00
2019-05-17T02:02:22.021Z,83.70
2019-05-17T02:04:53.981Z,83.10
2019-05-17T02:07:26.619Z,83.30
2019-05-17T02:09:56.980Z,83.00
2019-05-17T02:12:27.672Z,80.70
2019-05-17T02:14:58.630Z,81.30
2019-05-17T02:17:29.516Z,80.50
2019-05-17T02:20:00.479Z,81.20
2019-05-17T02:22:31.174Z,78.50
2019-05-17T02:25:02.172Z,78.40
2019-05-17T02:27:38.249Z,77.90
2019-05-17T02:30:07.309Z,76.70
2019-05-17T02:32:38.426Z,77.30
2019-05-17T02:35:28.454Z,77.10
2019-05-17T02:38:02.613Z,76.80
2019-05-17T02:40:34.166Z,76.30
2019-05-17T02:43:04.073Z,73.30
2019-05-17T02:45:34.856Z,74.10
2019-05-17T02:48:05.856Z,75.90
2019-05-17T02:50:37.252Z,76.30
2019-05-17T02:53:13.267Z,75.50
2019-05-17T02:55:45.967Z,74.60
2019-05-17T02:58:18.035Z,73.30
2019-05-17T03:00:53.303Z,74.00
2019-05-17T03:03:25.544Z,72.90
2019-05-17T03:05:56.480Z,73.80
2019-05-17T03:08:27.140Z,72.60
2019-05-17T03:10:57.807Z,71.70
2019-05-17T03:13:28.703Z,71.60
2019-05-17T03:16:03.033Z,73.20
2019-05-17T03:18:33.374Z,72.70
2019-05-17T03:21:04.335Z,70.80
2019-05-17T03:23:35.420Z,72.30
2019-05-17T03:26:12.769Z,72.50
2019-05-17T03:28:42.630Z,70.70
2019-05-17T03:31:17.058Z,70.20
2019-05-17T03:33:46.490Z,68.60
2019-05-17T03:36:18.102Z,68.70
2019-05-17T03:38:49.102Z,69.70
2019-05-17T03:41:24.871Z,69.80
2019-05-17T03:43:53.297Z,70.00
2019-05-17T03:46:24.389Z,68.20
2019-05-17T03:48:55.339Z,68.70
2019-05-17T03:51:28.187Z,68.70
2019-05-17T03:54:02.058Z,68.30
2019-05-17T03:56:32.991Z,66.50
2019-05-17T03:59:03.995Z,64.30
2019-05-17T04:01:34.945Z,65.10
2019-05-17T04:04:05.922Z,66.10
2019-05-17T04:06:38.177Z,63.70
2019-05-17T04:09:13.421Z,64.50
2019-05-17T04:11:42.884Z,64.30
2019-05-17T04:14:14.216Z,66.20
2019-05-17T04:16:45.316Z,65.60
2019-05-17T04:19:16.036Z,63.10
2019-05-17T04:21:46.933Z,62.40
2019-05-17T04:24:19.146Z,60.30
2019-05-17T04:26:52.296Z,60.50
2019-05-17T04:29:22.820Z,62.00
2019-05-17T04:31:54.579Z,62.50
2019-05-17T04:34:25.478Z,61.60
2019-05-17T04:36:56.349Z,64.00
2019-05-17T04:39:27.300Z,66.00
2019-05-17T04:41:58.151Z,62.40
2019-05-17T04:44:32.029Z,63.70
2019-05-17T04:47:03.172Z,60.90
2019-05-17T04:49:33.782Z,63.40
2019-05-17T04:52:05.709Z,60.20
2019-05-17T04:54:36.444Z,61.20
2019-05-17T04:57:07.889Z,61.50
2019-05-17T04:59:38.896Z,61.60
2019-05-17T05:02:12.929Z,60.20
2019-05-17T05:04:43.630Z,60.90
2019-05-17T05:07:14.297Z,62.20
2019-05-17T05:09:45.101Z,60.20
2019-05-17T05:12:16.571Z,60.30
2019-05-17T05:14:47.348Z,59.50
2019-05-17T05:17:18.223Z,61.30
2019-05-17T05:19:49.102Z,60.00
2019-05-17T05:22:22.533Z,59.60
2019-05-17T05:24:53.477Z,58.50
2019-05-17T05:27:26.139Z,58.50
2019-05-17T05:29:56.865Z,59.90
2019-05-17T05:32:28.110Z,60.60
2019-05-17T05:34:58.896Z,58.90
2019-05-17T05:37:29.702Z,58.50
2019-05-17T05:40:02.097Z,57.00
2019-05-17T05:42:34.145Z,57.80
2019-05-17T05:45:05.554Z,53.60
2019-05-17T05:47:36.441Z,55.10
2019-05-17T05:50:08.594Z,54.70
2019-05-17T05:52:42.387Z,55.30
2019-05-17T05:55:13.181Z,54.60
2019-05-17T05:57:43.987Z,55.70
2019-05-17T06:00:15.672Z,55.50
2019-05-17T06:02:46.367Z,54.20
2019-05-17T06:05:17.471Z,54.10
2019-05-17T06:07:48.569Z,56.90
2019-05-17T06:10:21.765Z,54.70
2019-05-17T06:12:52.073Z,55.30
2019-05-17T06:15:22.791Z,56.50
2019-05-17T06:17:53.628Z,55.60
2019-05-17T06:20:25.925Z,53.40
2019-05-17T06:22:56.809Z,54.20
2019-05-17T06:25:27.793Z,54.70
2019-05-17T06:27:58.493Z,54.50
2019-05-17T06:30:29.397Z,53.70
2019-05-17T06:33:02.244Z,54.60
2019-05-17T06:35:32.795Z,52.20
2019-05-17T06:38:03.793Z,52.00
2019-05-17T06:40:34.624Z,54.20
2019-05-17T06:43:05.587Z,53.30
2019-05-17T06:45:36.613Z,53.10
2019-05-17T06:48:07.546Z,51.20
2019-05-17T06:50:38.525Z,52.40
2019-05-17T06:53:11.976Z,53.30
2019-05-17T06:55:42.677Z,53.80
2019-05-17T06:58:13.698Z,53.10
2019-05-17T07:00:44.594Z,54.30
2019-05-17T07:03:15.574Z,54.80
2019-05-17T07:05:50.101Z,53.40
2019-05-17T07:08:20.190Z,55.00
2019-05-17T07:10:51.276Z,54.00
2019-05-17T07:13:22.046Z,54.30
2019-05-17T07:15:53.042Z,54.60
2019-05-17T07:18:23.818Z,55.00
2019-05-17T07:20:54.693Z,54.40
2019-05-17T07:23:25.781Z,54.90
2019-05-17T07:25:56.719Z,54.80
2019-05-17T07:28:27.504Z,55.00
2019-05-17T07:30:59.688Z,54.90
2019-05-17T07:33:30.749Z,54.00
2019-05-17T07:36:01.729Z,55.80
2019-05-17T07:38:32.596Z,55.70
2019-05-17T07:41:03.604Z,54.70
2019-05-17T07:43:34.597Z,53.90
2019-05-17T07:46:05.584Z,54.70
2019-05-17T07:48:36.548Z,55.60
2019-05-17T07:51:09.962Z,55.20
2019-05-17T07:53:40.077Z,55.60
2019-05-17T07:56:11.257Z,55.10
2019-05-17T07:58:42.138Z,55.60
2019-05-17T08:01:13.047Z,54.60
2019-05-17T08:03:44.015Z,54.80
2019-05-17T08:06:14.893Z,55.20
2019-05-17T08:08:45.755Z,55.20
2019-05-17T08:11:16.718Z,54.60
2019-05-17T08:13:47.409Z,54.50
2019-05-17T08:16:19.627Z,55.30
2019-05-17T08:18:50.298Z,56.30
2019-05-17T08:21:21.083Z,56.30
2019-05-17T08:23:52.046Z,55.10
2019-05-17T08:26:23.041Z,54.30
2019-05-17T08:28:53.975Z,55.10
2019-05-17T08:31:24.968Z,53.70
2019-05-17T08:33:55.841Z,53.00
2019-05-17T08:36:26.644Z,53.30
2019-05-17T08:38:59.508Z,53.20
2019-05-17T08:41:30.974Z,53.40
2019-05-17T08:44:02.224Z,53.90
2019-05-17T08:46:33.195Z,53.50
2019-05-17T08:49:04.089Z,54.30
2019-05-17T08:51:34.988Z,54.30
2019-05-17T08:54:06.037Z,54.30
2019-05-17T08:56:40.021Z,54.60
2019-05-17T08:59:09.695Z,53.80
2019-05-17T09:01:41.735Z,54.30
2019-05-17T09:04:13.199Z,53.10
2019-05-17T09:06:44.129Z,53.30
2019-05-17T09:09:15.088Z,53.20
2019-05-17T09:11:46.080Z,54.00
2019-05-17T09:14:17.034Z,53.30
2019-05-17T09:16:50.319Z,52.80
2019-05-17T09:19:20.422Z,53.10
2019-05-17T09:21:51.175Z,52.00
2019-05-17T09:24:22.231Z,52.40
2019-05-17T09:26:53.242Z,52.80
2019-05-17T09:29:24.087Z,52.70
2019-05-17T09:31:55.183Z,53.20
2019-05-17T09:34:26.078Z,52.90
2019-05-17T09:36:57.088Z,52.80
2019-05-17T09:39:29.500Z,52.70
2019-05-17T09:42:00.138Z,53.20
2019-05-17T09:44:31.268Z,53.10
2019-05-17T09:47:02.292Z,52.70
2019-05-17T09:49:33.287Z,53.20
2019-05-17T09:52:04.245Z,53.30
2019-05-17T09:54:42.333Z,52.90
2019-05-17T09:57:09.757Z,53.00
2019-05-17T09:59:40.495Z,53.80
2019-05-17T10:02:11.670Z,53.90
2019-05-17T10:04:42.557Z,54.00
2019-05-17T10:07:13.554Z,54.20
2019-05-17T10:09:44.532Z,54.60
2019-05-17T10:12:15.404Z,54.30
2019-05-17T10:14:46.073Z,53.90
2019-05-17T10:17:16.758Z,53.60
2019-05-17T10:19:47.555Z,53.60
2019-05-17T10:22:20.034Z,53.50
2019-05-17T10:24:50.849Z,53.40
2019-05-17T10:27:21.761Z,53.80
2019-05-17T10:29:52.833Z,53.20
2019-05-17T10:32:23.800Z,53.30
2019-05-17T10:34:54.661Z,53.30
2019-05-17T10:37:25.635Z,53.20
2019-05-17T10:39:56.429Z,53.40
2019-05-17T10:42:27.079Z,53.80
2019-05-17T10:44:59.791Z,53.80
2019-05-17T10:47:30.329Z,53.50
2019-05-17T10:50:01.456Z,53.60
2019-05-17T10:52:32.477Z,53.00
2019-05-17T10:55:03.360Z,53.20
2019-05-17T10:57:34.054Z,53.20
2019-05-17T11:00:05.946Z,53.20
2019-05-17T11:02:36.730Z,53.40
2019-05-17T11:05:10.323Z,53.80
2019-05-17T11:07:40.667Z,53.80
2019-05-17T11:10:12.189Z,54.10
2019-05-17T11:12:43.240Z,54.10
2019-05-17T11:15:14.054Z,54.30
2019-05-17T11:17:44.697Z,54.40
2019-05-17T11:20:15.442Z,54.70
2019-05-17T11:22:46.273Z,55.10
2019-05-17T11:25:17.312Z,55.20
2019-05-17T11:27:48.249Z,55.60
2019-05-17T11:30:20.312Z,56.10
2019-05-17T11:32:51.199Z,56.50
2019-05-17T11:35:24.704Z,56.70
2019-05-17T11:37:54.421Z,57.10
2019-05-17T11:40:25.301Z,56.70
2019-05-17T11:42:56.284Z,56.90
2019-05-17T11:45:30.247Z,56.50
2019-05-17T11:47:59.277Z,57.60
2019-05-17T11:50:30.160Z,57.60
2019-05-17T11:53:01.030Z,57.80
2019-05-17T11:55:32.024Z,57.60
2019-05-17T11:58:02.923Z,57.70
2019-05-17T12:00:33.827Z,57.70
2019-05-17T12:03:04.812Z,58.00
2019-05-17T12:05:35.803Z,58.30
2019-05-17T12:08:08.685Z,58.30
2019-05-17T12:10:39.076Z,58.40
2019-05-17T12:13:10.128Z,58.50
2019-05-17T12:15:45.211Z,58.70
2019-05-17T12:18:13.265Z,58.70
2019-05-17T12:20:44.301Z,59.30
2019-05-17T12:23:15.178Z,59.50
2019-05-17T12:25:46.270Z,59.70
2019-05-17T12:28:16.944Z,60.00
2019-05-17T12:30:47.904Z,59.20
2019-05-17T12:33:18.901Z,59.80
2019-05-17T12:35:49.794Z,59.60
2019-05-17T12:38:20.772Z,60.00
2019-05-17T12:40:51.817Z,59.50
2019-05-17T12:43:22.859Z,59.60
2019-05-17T12:46:00.762Z,59.60
2019-05-17T12:48:26.125Z,59.70
2019-05-17T12:50:56.999Z,60.80
2019-05-17T12:53:30.265Z,59.90
2019-05-17T12:56:00.982Z,60.00
2019-05-17T12:58:31.673Z,60.00
2019-05-17T13:01:02.641Z,60.10
2019-05-17T13:03:33.550Z,60.40
2019-05-17T13:06:04.340Z,60.70
2019-05-17T13:08:35.242Z,60.90
2019-05-17T13:11:06.115Z,61.00
2019-05-17T13:13:36.776Z,61.20
2019-05-17T13:16:17.317Z,61.10
2019-05-17T13:18:39.900Z,60.80
2019-05-17T13:21:10.576Z,61.30
2019-05-17T13:23:41.289Z,61.90
2019-05-17T13:26:12.236Z,61.20
2019-05-17T13:28:43.212Z,60.90
2019-05-17T13:31:14.252Z,60.90
2019-05-17T13:33:45.266Z,61.20
2019-05-17T13:36:16.093Z,61.20
2019-05-17T13:38:47.378Z,60.80
2019-05-17T13:41:18.366Z,61.30
2019-05-17T13:43:52.350Z,61.80
2019-05-17T13:46:32.836Z,62.10
2019-05-17T13:51:32.496Z,60.70
2019-05-17T13:54:05.037Z,61.30
2019-05-17T13:56:37.928Z,61.50
2019-05-17T13:59:08.952Z,61.30
2019-05-17T14:01:39.855Z,61.40
2019-05-17T14:04:10.610Z,61.70
2019-05-17T14:06:41.554Z,61.90
2019-05-17T14:09:12.258Z,62.00
2019-05-17T14:11:43.217Z,61.90
2019-05-17T14:14:14.612Z,61.80
2019-05-17T14:16:46.124Z,61.90
2019-05-17T14:19:17.184Z,62.10
2019-05-17T14:21:48.102Z,62.30
2019-05-17T14:24:19.373Z,62.30
2019-05-17T14:26:50.391Z,62.00
2019-05-17T14:29:21.356Z,62.70
2019-05-17T14:31:52.381Z,62.80
2019-05-17T14:34:23.322Z,63.00
2019-05-17T14:36:54.309Z,63.30
2019-05-17T14:39:25.158Z,63.50
2019-05-17T14:41:55.855Z,63.50
2019-05-17T14:44:26.571Z,63.60
2019-05-17T14:46:57.297Z,63.80
2019-05-17T14:49:34.219Z,63.90
2019-05-17T14:52:05.069Z,63.90
2019-05-17T14:54:36.035Z,64.00
2019-05-17T14:57:07.045Z,64.10
2019-05-17T14:59:38.607Z,64.20
2019-05-17T15:02:09.301Z,64.30
2019-05-17T15:04:40.307Z,64.20
2019-05-17T15:07:11.664Z,64.20
2019-05-17T15:09:42.419Z,65.10
2019-05-17T15:12:27.314Z,64.50
2019-05-17T15:14:45.913Z,64.80
2019-05-17T15:17:16.625Z,64.50
2019-05-17T15:19:50.964Z,64.50
2019-05-17T15:22:19.560Z,64.70
2019-05-17T15:24:50.323Z,64.90
2019-05-17T15:27:21.190Z,65.10
2019-05-17T15:29:51.914Z,65.20
2019-05-17T15:32:22.619Z,65.30
2019-05-17T15:34:54.522Z,65.40
2019-05-17T15:37:25.702Z,65.80
2019-05-17T15:39:56.920Z,66.00
2019-05-17T15:42:41.867Z,66.10
2019-05-17T15:45:00.476Z,66.30
2019-05-17T15:47:31.516Z,66.60
2019-05-17T15:50:02.273Z,65.90
2019-05-17T15:52:32.968Z,66.90
2019-05-17T15:55:03.680Z,67.00
2019-05-17T15:57:34.545Z,67.30
2019-05-17T16:00:06.735Z,67.90
2019-05-17T16:02:46.950Z,67.70
2019-05-17T16:05:17.903Z,67.80
2019-05-17T16:07:48.579Z,68.00
2019-05-17T16:10:19.477Z,68.20
2019-05-17T16:13:01.690Z,68.40
2019-05-17T16:15:22.721Z,68.60
2019-05-17T16:17:53.495Z,68.70
2019-05-17T16:20:24.573Z,68.90
2019-05-17T16:22:55.797Z,69.10
2019-05-17T16:25:26.779Z,69.10
2019-05-17T16:27:57.484Z,69.10
2019-05-17T16:30:28.162Z,69.40
2019-05-17T16:32:59.035Z,69.50
2019-05-17T16:35:29.713Z,69.70
2019-05-17T16:38:00.665Z,69.70
2019-05-17T16:40:31.512Z,70.40
2019-05-17T16:43:17.054Z,70.10
2019-05-17T16:45:37.557Z,70.40
2019-05-17T16:48:08.251Z,70.50
2019-05-17T16:50:38.931Z,70.60
2019-05-17T16:53:09.727Z,69.90
2019-05-17T16:55:40.409Z,70.30
2019-05-17T16:58:11.301Z,71.00
2019-05-17T17:00:44.682Z,70.80
2019-05-17T17:03:15.697Z,71.20
2019-05-17T17:05:46.608Z,71.60
2019-05-17T17:08:17.460Z,71.20
2019-05-17T17:10:48.653Z,71.40
2019-05-17T17:13:32.431Z,71.50
2019-05-17T17:15:51.466Z,71.20
2019-05-17T17:18:22.520Z,72.00
2019-05-17T17:20:53.197Z,71.40
2019-05-17T17:23:24.050Z,72.30
2019-05-17T17:25:54.953Z,72.40
2019-05-17T17:28:26.141Z,72.60
2019-05-17T17:30:57.593Z,72.80
2019-05-17T17:33:29.795Z,73.20
2019-05-17T17:36:00.903Z,73.30
2019-05-17T17:38:31.616Z,73.40
2019-05-17T17:41:02.378Z,73.10
2019-05-17T17:43:33.296Z,73.70
2019-05-17T17:46:03.987Z,73.90
2019-05-17T17:48:34.687Z,74.90
2019-05-17T17:51:05.410Z,74.40
2019-05-17T17:53:36.244Z,74.40
2019-05-17T17:56:26.134Z,74.50
2019-05-17T17:58:56.842Z,75.30
2019-05-17T18:01:27.701Z,74.70
2019-05-17T18:03:58.604Z,75.80
2019-05-17T18:06:29.397Z,74.90
2019-05-17T18:09:00.488Z,75.30
2019-05-17T18:11:31.185Z,75.50
2019-05-17T18:14:13.068Z,76.20
2019-05-17T18:19:04.799Z,75.60
2019-05-17T18:21:36.204Z,76.30
2019-05-17T18:24:07.483Z,76.50
2019-05-17T18:26:38.250Z,76.50
2019-05-17T18:29:08.884Z,76.60
2019-05-17T18:34:10.243Z,76.00
2019-05-17T18:36:42.278Z,76.00
2019-05-17T18:41:43.245Z,76.30
2019-05-17T18:44:27.128Z,76.60
2019-05-17T18:46:46.070Z,76.70
2019-05-17T18:49:16.787Z,77.50
2019-05-17T18:51:47.870Z,77.50
2019-05-17T18:54:18.641Z,77.60
2019-05-17T18:56:49.679Z,77.70
2019-05-17T18:59:20.369Z,77.40
2019-05-17T19:01:51.119Z,77.30
2019-05-17T19:04:21.992Z,77.50
2019-05-17T19:06:52.701Z,78.40
2019-05-17T19:09:23.430Z,77.70
2019-05-17T19:11:54.127Z,78.50
2019-05-17T19:14:24.921Z,78.40
2019-05-17T19:16:56.379Z,77.70
2019-05-17T19:19:27.050Z,79.10
2019-05-17T19:21:57.735Z,78.70
2019-05-17T19:24:28.404Z,78.80
2019-05-17T19:27:00.354Z,77.90
2019-05-17T19:29:31.083Z,78.80
2019-05-17T19:32:01.802Z,78.80
2019-05-17T19:34:32.575Z,78.90
2019-05-17T19:37:03.260Z,78.90
2019-05-17T19:39:33.905Z,78.80
2019-05-17T19:42:04.836Z,79.40
2019-05-17T19:44:35.718Z,79.40
2019-05-17T19:47:07.072Z,78.40
2019-05-17T19:49:37.802Z,78.70
2019-05-17T19:52:08.466Z,78.70
2019-05-17T19:54:39.168Z,78.90
2019-05-17T19:57:09.921Z,78.60
2019-05-17T19:59:40.878Z,79.50
2019-05-17T20:02:11.667Z,80.10
2019-05-17T20:04:42.715Z,79.80
2019-05-17T20:07:13.745Z,79.90
2019-05-17T20:09:47.245Z,79.60
2019-05-17T20:12:21.012Z,80.30
2019-05-17T20:14:51.906Z,80.10
2019-05-17T20:17:22.980Z,79.40
2019-05-17T20:19:53.756Z,79.10
2019-05-17T20:22:24.435Z,79.20
2019-05-17T20:24:59.873Z,79.30
2019-05-17T20:27:30.676Z,80.00
2019-05-17T20:30:03.088Z,80.30
2019-05-17T20:32:34.938Z,80.20
2019-05-17T20:35:06.918Z,79.40
2019-05-17T20:37:37.571Z,80.90
2019-05-17T20:40:09.190Z,80.40
2019-05-17T20:42:39.875Z,80.60
2019-05-17T20:45:10.865Z,80.20
2019-05-17T20:47:41.628Z,80.30
2019-05-17T20:50:13.577Z,80.10
2019-05-17T20:52:44.268Z,80.20
2019-05-17T20:55:15.413Z,80.50
2019-05-17T20:57:46.151Z,80.40
2019-05-17T21:00:17.330Z,80.40
2019-05-17T21:02:48.087Z,80.60
2019-05-17T21:05:19.456Z,80.40
2019-05-17T21:07:50.168Z,80.40
2019-05-17T21:10:20.903Z,80.60
2019-05-17T21:12:51.610Z,80.60
2019-05-17T21:15:22.295Z,80.70
2019-05-17T21:17:53.303Z,80.60
2019-05-17T21:20:24.231Z,80.70
2019-05-17T21:22:54.914Z,80.60
2019-05-17T21:25:25.840Z,79.60
2019-05-17T21:27:56.494Z,80.60
2019-05-17T21:30:27.220Z,80.80
2019-05-17T21:32:58.167Z,81.00
2019-05-17T21:35:28.912Z,81.20
2019-05-17T21:37:59.562Z,81.40
2019-05-17T21:40:30.182Z,81.70
2019-05-17T21:43:00.956Z,81.80
2019-05-17T21:45:31.693Z,82.00
2019-05-17T21:48:02.341Z,80.60
2019-05-17T21:50:33.156Z,81.90
2019-05-17T21:53:03.814Z,81.80
2019-05-17T21:55:34.537Z,80.90
2019-05-17T21:58:05.294Z,81.80
2019-05-17T22:00:39.882Z,81.90
2019-05-17T22:03:10.885Z,80.70
2019-05-17T22:05:42.292Z,82.30
2019-05-17T22:08:20.365Z,80.80
2019-05-17T22:10:52.080Z,82.00
2019-05-17T22:13:22.752Z,82.10
2019-05-17T22:15:53.633Z,81.20
2019-05-17T22:18:24.408Z,82.30
2019-05-17T22:20:55.166Z,81.80
2019-05-17T22:23:25.926Z,81.30
2019-05-17T22:25:56.602Z,82.50
2019-05-17T22:28:27.303Z,82.90
2019-05-17T22:30:58.158Z,82.60
2019-05-17T22:33:28.905Z,81.60
2019-05-17T22:35:59.795Z,81.60
2019-05-17T22:38:30.472Z,81.70
2019-05-17T22:41:01.307Z,82.60
2019-05-17T22:43:32.294Z,82.10
2019-05-17T22:46:02.922Z,82.90
2019-05-17T22:48:33.684Z,83.00
2019-05-17T22:51:04.515Z,83.20
2019-05-17T22:53:35.202Z,83.50
2019-05-17T22:56:05.956Z,83.40
2019-05-17T22:58:36.611Z,83.80
2019-05-17T23:01:07.607Z,83.70
2019-05-17T23:03:38.483Z,84.00
2019-05-17T23:08:40.415Z,83.50
2019-05-17T23:11:11.220Z,84.30
2019-05-17T23:13:41.852Z,84.40
2019-05-17T23:16:13.863Z,83.80
2019-05-17T23:18:45.914Z,84.70
2019-05-17T23:21:16.570Z,84.60
2019-05-17T23:23:47.382Z,84.90
2019-05-17T23:26:18.071Z,84.80
2019-05-17T23:28:48.747Z,84.70
2019-05-17T23:31:19.531Z,84.60
2019-05-17T23:33:55.808Z,84.40
2019-05-17T23:36:26.838Z,84.20
2019-05-17T23:38:57.858Z,84.20
2019-05-17T23:41:28.825Z,83.80
2019-05-17T23:43:59.499Z,84.10
2019-05-17T23:46:30.193Z,83.50
2019-05-17T23:49:01.193Z,83.50
2019-05-17T23:51:31.951Z,83.50
2019-05-17T23:54:02.674Z,83.40
2019-05-17T23:56:33.628Z,83.40
2019-05-17T23:59:04.625Z,83.40
